KOLE/OLE METAR and TAF weather

Enter ICAO airport designator
Station Type Date Time Source
KOLE METAR 2021/09/25 12:15 UTC NOAA

KOLE 251215Z AUTO 20005KT 10SM CLR 08/06 A3005 RMK AO2


Station Type Date Time Source
KOLE Decoded METAR 2021/09/25 12:15 UTC NOAA

Olean Municipal, NY, United States (KOLE) 42-14N 078-22W
Sep 25, 2021 - 08:15 AM EDT / 2021.09.25 1215 UTC
Wind: from the SSW (200 degrees) at 6 MPH (5 KT):0
Visibility: 10 mile(s):0
Sky conditions: clear
Temperature: 46 F (8 C)
Dew Point: 42 F (6 C)
Relative Humidity: 87%
Pressure (altimeter): 30.05 in. Hg (1017 hPa)
ob: KOLE 251215Z AUTO 20005KT 10SM CLR 08/06 A3005 RMK AO2
cycle: 12

Station Type Date Time Source
KOLE TAF UTC NOAA

Error!

Example: see airport list